sensor_id;sensor_type;location;lat;lon;timestamp;P1;durP1;ratioP1;P2;durP2;ratioP2
10365;SDS011;5229;41.820;23.490;2023-04-07T00:00:12;4.73;;;3.03;;
10365;SDS011;5229;41.820;23.490;2023-04-07T00:02:40;3.50;;;3.17;;
10365;SDS011;5229;41.820;23.490;2023-04-07T00:05:07;4.47;;;3.13;;
10365;SDS011;5229;41.820;23.490;2023-04-07T00:07:33;5.37;;;3.10;;
10365;SDS011;5229;41.820;23.490;2023-04-07T00:10:00;4.27;;;3.50;;
10365;SDS011;5229;41.820;23.490;2023-04-07T00:12:28;3.40;;;3.10;;
10365;SDS011;5229;41.820;23.490;2023-04-07T00:14:55;3.50;;;3.20;;
10365;SDS011;5229;41.820;23.490;2023-04-07T00:17:22;4.63;;;3.67;;
10365;SDS011;5229;41.820;23.490;2023-04-07T00:19:49;5.17;;;3.87;;
10365;SDS011;5229;41.820;23.490;2023-04-07T00:22:15;4.77;;;4.00;;
10365;SDS011;5229;41.820;23.490;2023-04-07T00:24:43;4.70;;;3.23;;
10365;SDS011;5229;41.820;23.490;2023-04-07T00:27:10;4.57;;;3.70;;
10365;SDS011;5229;41.820;23.490;2023-04-07T00:29:38;4.53;;;3.77;;
10365;SDS011;5229;41.820;23.490;2023-04-07T00:32:05;6.63;;;3.53;;
10365;SDS011;5229;41.820;23.490;2023-04-07T00:34:31;4.07;;;3.67;;
10365;SDS011;5229;41.820;23.490;2023-04-07T00:36:58;4.80;;;3.87;;
10365;SDS011;5229;41.820;23.490;2023-04-07T00:39:25;4.57;;;3.53;;
10365;SDS011;5229;41.820;23.490;2023-04-07T00:41:52;4.10;;;3.70;;
10365;SDS011;5229;41.820;23.490;2023-04-07T00:44:20;4.37;;;3.90;;
10365;SDS011;5229;41.820;23.490;2023-04-07T00:46:48;5.00;;;3.97;;
10365;SDS011;5229;41.820;23.490;2023-04-07T00:49:15;3.87;;;3.30;;
10365;SDS011;5229;41.820;23.490;2023-04-07T00:51:43;4.10;;;3.43;;
10365;SDS011;5229;41.820;23.490;2023-04-07T00:54:11;4.00;;;3.47;;
10365;SDS011;5229;41.820;23.490;2023-04-07T00:56:38;5.43;;;4.03;;
10365;SDS011;5229;41.820;23.490;2023-04-07T00:59:05;4.03;;;3.47;;
10365;SDS011;5229;41.820;23.490;2023-04-07T01:01:33;4.77;;;3.70;;
10365;SDS011;5229;41.820;23.490;2023-04-07T01:04:08;3.87;;;3.47;;
10365;SDS011;5229;41.820;23.490;2023-04-07T01:06:42;6.17;;;4.43;;
10365;SDS011;5229;41.820;23.490;2023-04-07T01:09:15;3.70;;;3.40;;
10365;SDS011;5229;41.820;23.490;2023-04-07T01:11:47;3.60;;;3.30;;
10365;SDS011;5229;41.820;23.490;2023-04-07T01:14:21;3.77;;;3.37;;
10365;SDS011;5229;41.820;23.490;2023-04-07T01:16:50;5.17;;;3.97;;
10365;SDS011;5229;41.820;23.490;2023-04-07T01:19:25;5.83;;;3.13;;
10365;SDS011;5229;41.820;23.490;2023-04-07T01:21:59;5.17;;;3.33;;
10365;SDS011;5229;41.820;23.490;2023-04-07T01:24:33;3.73;;;2.97;;
10365;SDS011;5229;41.820;23.490;2023-04-07T01:27:18;3.57;;;3.27;;
10365;SDS011;5229;41.820;23.490;2023-04-07T01:29:51;3.90;;;3.20;;
10365;SDS011;5229;41.820;23.490;2023-04-07T01:32:19;4.53;;;3.73;;
10365;SDS011;5229;41.820;23.490;2023-04-07T01:34:49;3.80;;;3.40;;
10365;SDS011;5229;41.820;23.490;2023-04-07T01:37:17;4.80;;;3.43;;
10365;SDS011;5229;41.820;23.490;2023-04-07T01:39:45;3.73;;;3.30;;
10365;SDS011;5229;41.820;23.490;2023-04-07T01:42:12;4.67;;;3.20;;
10365;SDS011;5229;41.820;23.490;2023-04-07T01:44:40;3.27;;;2.97;;
10365;SDS011;5229;41.820;23.490;2023-04-07T01:47:09;5.40;;;3.70;;
10365;SDS011;5229;41.820;23.490;2023-04-07T01:49:37;3.83;;;3.20;;
10365;SDS011;5229;41.820;23.490;2023-04-07T01:52:06;3.23;;;2.90;;
10365;SDS011;5229;41.820;23.490;2023-04-07T01:54:34;4.00;;;3.57;;
10365;SDS011;5229;41.820;23.490;2023-04-07T01:57:01;3.27;;;2.97;;
10365;SDS011;5229;41.820;23.490;2023-04-07T01:59:28;4.40;;;3.40;;
10365;SDS011;5229;41.820;23.490;2023-04-07T02:01:55;4.10;;;3.60;;
10365;SDS011;5229;41.820;23.490;2023-04-07T02:04:27;3.53;;;3.23;;
10365;SDS011;5229;41.820;23.490;2023-04-07T02:06:58;4.57;;;3.20;;
10365;SDS011;5229;41.820;23.490;2023-04-07T02:09:31;3.57;;;3.23;;
10365;SDS011;5229;41.820;23.490;2023-04-07T02:11:59;3.70;;;3.13;;
10365;SDS011;5229;41.820;23.490;2023-04-07T02:14:30;4.73;;;3.00;;
10365;SDS011;5229;41.820;23.490;2023-04-07T02:16:58;4.77;;;3.43;;
10365;SDS011;5229;41.820;23.490;2023-04-07T02:19:30;3.57;;;3.03;;
10365;SDS011;5229;41.820;23.490;2023-04-07T02:21:58;4.10;;;3.30;;
10365;SDS011;5229;41.820;23.490;2023-04-07T02:24:28;4.07;;;3.63;;
10365;SDS011;5229;41.820;23.490;2023-04-07T02:26:54;4.73;;;3.50;;
10365;SDS011;5229;41.820;23.490;2023-04-07T02:29:21;3.33;;;3.00;;
10365;SDS011;5229;41.820;23.490;2023-04-07T02:31:48;4.57;;;3.97;;
10365;SDS011;5229;41.820;23.490;2023-04-07T02:34:15;3.67;;;3.20;;
10365;SDS011;5229;41.820;23.490;2023-04-07T02:36:43;3.87;;;3.33;;
10365;SDS011;5229;41.820;23.490;2023-04-07T02:39:11;3.03;;;2.67;;
10365;SDS011;5229;41.820;23.490;2023-04-07T02:41:37;4.17;;;3.47;;
10365;SDS011;5229;41.820;23.490;2023-04-07T02:44:04;4.77;;;3.00;;
10365;SDS011;5229;41.820;23.490;2023-04-07T02:46:31;3.53;;;3.23;;
10365;SDS011;5229;41.820;23.490;2023-04-07T02:48:58;3.67;;;3.23;;
10365;SDS011;5229;41.820;23.490;2023-04-07T02:51:25;4.10;;;3.60;;
10365;SDS011;5229;41.820;23.490;2023-04-07T02:53:54;3.63;;;3.33;;
10365;SDS011;5229;41.820;23.490;2023-04-07T02:56:21;4.23;;;3.47;;
10365;SDS011;5229;41.820;23.490;2023-04-07T02:58:47;3.77;;;3.20;;
10365;SDS011;5229;41.820;23.490;2023-04-07T03:01:14;3.73;;;3.20;;
10365;SDS011;5229;41.820;23.490;2023-04-07T03:03:41;4.67;;;3.30;;
10365;SDS011;5229;41.820;23.490;2023-04-07T03:06:09;3.50;;;3.20;;
10365;SDS011;5229;41.820;23.490;2023-04-07T03:08:35;3.33;;;3.03;;
10365;SDS011;5229;41.820;23.490;2023-04-07T03:11:04;4.63;;;2.90;;
10365;SDS011;5229;41.820;23.490;2023-04-07T03:13:30;3.90;;;3.33;;
10365;SDS011;5229;41.820;23.490;2023-04-07T03:15:57;4.67;;;3.10;;
10365;SDS011;5229;41.820;23.490;2023-04-07T03:18:24;5.23;;;3.10;;
10365;SDS011;5229;41.820;23.490;2023-04-07T03:20:51;3.63;;;2.90;;
10365;SDS011;5229;41.820;23.490;2023-04-07T03:23:19;4.93;;;3.40;;
10365;SDS011;5229;41.820;23.490;2023-04-07T03:25:48;4.17;;;3.40;;
10365;SDS011;5229;41.820;23.490;2023-04-07T03:28:16;3.57;;;3.20;;
10365;SDS011;5229;41.820;23.490;2023-04-07T03:30:42;3.93;;;3.20;;
10365;SDS011;5229;41.820;23.490;2023-04-07T03:33:09;3.27;;;2.90;;
10365;SDS011;5229;41.820;23.490;2023-04-07T03:35:36;3.10;;;2.80;;
10365;SDS011;5229;41.820;23.490;2023-04-07T03:38:03;5.07;;;2.93;;
10365;SDS011;5229;41.820;23.490;2023-04-07T03:40:29;4.40;;;3.43;;
10365;SDS011;5229;41.820;23.490;2023-04-07T03:42:57;4.37;;;3.30;;
10365;SDS011;5229;41.820;23.490;2023-04-07T03:45:25;3.97;;;3.40;;
10365;SDS011;5229;41.820;23.490;2023-04-07T03:47:52;4.87;;;3.40;;
10365;SDS011;5229;41.820;23.490;2023-04-07T03:50:19;4.70;;;3.00;;
10365;SDS011;5229;41.820;23.490;2023-04-07T03:52:46;3.40;;;3.10;;
10365;SDS011;5229;41.820;23.490;2023-04-07T03:55:13;4.90;;;2.83;;
10365;SDS011;5229;41.820;23.490;2023-04-07T03:57:40;5.10;;;2.93;;
10365;SDS011;5229;41.820;23.490;2023-04-07T04:00:07;4.30;;;2.90;;
10365;SDS011;5229;41.820;23.490;2023-04-07T04:02:36;5.87;;;2.90;;
10365;SDS011;5229;41.820;23.490;2023-04-07T04:05:03;4.07;;;3.30;;
10365;SDS011;5229;41.820;23.490;2023-04-07T04:07:30;5.73;;;2.80;;
10365;SDS011;5229;41.820;23.490;2023-04-07T04:09:57;3.40;;;3.03;;
10365;SDS011;5229;41.820;23.490;2023-04-07T04:12:24;3.90;;;3.17;;
10365;SDS011;5229;41.820;23.490;2023-04-07T04:14:51;3.63;;;2.80;;
10365;SDS011;5229;41.820;23.490;2023-04-07T04:17:18;5.43;;;3.53;;
10365;SDS011;5229;41.820;23.490;2023-04-07T04:19:46;3.13;;;2.83;;
10365;SDS011;5229;41.820;23.490;2023-04-07T04:22:13;3.83;;;3.27;;
10365;SDS011;5229;41.820;23.490;2023-04-07T04:24:39;4.47;;;3.07;;
10365;SDS011;5229;41.820;23.490;2023-04-07T04:27:06;5.20;;;3.17;;
10365;SDS011;5229;41.820;23.490;2023-04-07T04:29:33;3.37;;;2.80;;
10365;SDS011;5229;41.820;23.490;2023-04-07T04:32:00;2.80;;;2.60;;
10365;SDS011;5229;41.820;23.490;2023-04-07T04:34:26;3.07;;;2.77;;
10365;SDS011;5229;41.820;23.490;2023-04-07T04:36:54;3.03;;;2.77;;
10365;SDS011;5229;41.820;23.490;2023-04-07T04:39:21;3.30;;;2.53;;
10365;SDS011;5229;41.820;23.490;2023-04-07T04:41:48;3.43;;;2.90;;
10365;SDS011;5229;41.820;23.490;2023-04-07T04:44:15;4.37;;;3.00;;
10365;SDS011;5229;41.820;23.490;2023-04-07T04:46:42;4.40;;;3.03;;
10365;SDS011;5229;41.820;23.490;2023-04-07T04:49:08;4.70;;;3.30;;
10365;SDS011;5229;41.820;23.490;2023-04-07T04:51:35;6.73;;;3.20;;
10365;SDS011;5229;41.820;23.490;2023-04-07T04:54:03;4.17;;;3.43;;
10365;SDS011;5229;41.820;23.490;2023-04-07T04:56:30;3.50;;;2.90;;
10365;SDS011;5229;41.820;23.490;2023-04-07T04:58:57;3.10;;;2.87;;
10365;SDS011;5229;41.820;23.490;2023-04-07T05:01:24;4.53;;;3.83;;
10365;SDS011;5229;41.820;23.490;2023-04-07T05:03:51;5.23;;;3.70;;
10365;SDS011;5229;41.820;23.490;2023-04-07T05:06:18;5.03;;;3.80;;
10365;SDS011;5229;41.820;23.490;2023-04-07T05:08:45;4.43;;;3.13;;
10365;SDS011;5229;41.820;23.490;2023-04-07T05:11:13;3.70;;;3.23;;
10365;SDS011;5229;41.820;23.490;2023-04-07T05:13:40;5.30;;;3.70;;
10365;SDS011;5229;41.820;23.490;2023-04-07T05:16:07;4.37;;;3.63;;
10365;SDS011;5229;41.820;23.490;2023-04-07T05:18:33;3.60;;;3.20;;
10365;SDS011;5229;41.820;23.490;2023-04-07T05:21:00;3.37;;;3.00;;
10365;SDS011;5229;41.820;23.490;2023-04-07T05:23:27;3.67;;;3.30;;
10365;SDS011;5229;41.820;23.490;2023-04-07T05:25:54;4.07;;;3.40;;
10365;SDS011;5229;41.820;23.490;2023-04-07T05:28:22;5.80;;;4.03;;
10365;SDS011;5229;41.820;23.490;2023-04-07T05:30:49;9.47;;;3.83;;
10365;SDS011;5229;41.820;23.490;2023-04-07T05:33:16;3.57;;;3.13;;
10365;SDS011;5229;41.820;23.490;2023-04-07T05:35:43;6.53;;;3.73;;
10365;SDS011;5229;41.820;23.490;2023-04-07T05:38:10;4.53;;;3.77;;
10365;SDS011;5229;41.820;23.490;2023-04-07T05:40:38;4.60;;;3.87;;
10365;SDS011;5229;41.820;23.490;2023-04-07T05:43:05;4.93;;;3.67;;
10365;SDS011;5229;41.820;23.490;2023-04-07T05:45:33;4.50;;;3.67;;
10365;SDS011;5229;41.820;23.490;2023-04-07T05:48:00;4.17;;;3.53;;
10365;SDS011;5229;41.820;23.490;2023-04-07T05:50:27;4.77;;;4.30;;
10365;SDS011;5229;41.820;23.490;2023-04-07T05:52:53;4.97;;;3.10;;
10365;SDS011;5229;41.820;23.490;2023-04-07T05:55:20;5.83;;;3.70;;
10365;SDS011;5229;41.820;23.490;2023-04-07T05:57:47;5.50;;;4.00;;
10365;SDS011;5229;41.820;23.490;2023-04-07T06:00:15;5.13;;;4.03;;
10365;SDS011;5229;41.820;23.490;2023-04-07T06:02:45;4.77;;;3.83;;
10365;SDS011;5229;41.820;23.490;2023-04-07T06:05:12;4.37;;;3.57;;
10365;SDS011;5229;41.820;23.490;2023-04-07T06:07:38;5.00;;;3.70;;
10365;SDS011;5229;41.820;23.490;2023-04-07T06:10:06;4.40;;;3.50;;
10365;SDS011;5229;41.820;23.490;2023-04-07T06:12:33;3.80;;;3.47;;
10365;SDS011;5229;41.820;23.490;2023-04-07T06:15:00;5.23;;;3.73;;
10365;SDS011;5229;41.820;23.490;2023-04-07T06:17:27;4.83;;;3.90;;
10365;SDS011;5229;41.820;23.490;2023-04-07T06:19:55;4.97;;;3.77;;
10365;SDS011;5229;41.820;23.490;2023-04-07T06:22:22;4.83;;;3.83;;
10365;SDS011;5229;41.820;23.490;2023-04-07T06:24:49;3.70;;;3.40;;
10365;SDS011;5229;41.820;23.490;2023-04-07T06:27:17;3.60;;;3.30;;
10365;SDS011;5229;41.820;23.490;2023-04-07T06:29:43;4.00;;;3.13;;
10365;SDS011;5229;41.820;23.490;2023-04-07T06:32:10;4.90;;;3.67;;
10365;SDS011;5229;41.820;23.490;2023-04-07T06:34:37;4.60;;;3.67;;
10365;SDS011;5229;41.820;23.490;2023-04-07T06:37:06;6.93;;;4.00;;
10365;SDS011;5229;41.820;23.490;2023-04-07T06:39:32;4.57;;;3.50;;
10365;SDS011;5229;41.820;23.490;2023-04-07T06:41:59;3.80;;;3.37;;
10365;SDS011;5229;41.820;23.490;2023-04-07T06:44:26;3.80;;;3.50;;
10365;SDS011;5229;41.820;23.490;2023-04-07T06:46:53;5.97;;;3.67;;
10365;SDS011;5229;41.820;23.490;2023-04-07T06:49:20;5.70;;;3.77;;
10365;SDS011;5229;41.820;23.490;2023-04-07T06:51:47;4.00;;;3.55;;
10365;SDS011;5229;41.820;23.490;2023-04-07T06:54:16;3.70;;;3.30;;
10365;SDS011;5229;41.820;23.490;2023-04-07T06:56:42;4.68;;;3.38;;
10365;SDS011;5229;41.820;23.490;2023-04-07T06:59:09;4.03;;;3.63;;
10365;SDS011;5229;41.820;23.490;2023-04-07T07:01:36;4.30;;;3.95;;
10365;SDS011;5229;41.820;23.490;2023-04-07T07:04:03;3.50;;;3.20;;
10365;SDS011;5229;41.820;23.490;2023-04-07T07:06:30;8.18;;;3.60;;
10365;SDS011;5229;41.820;23.490;2023-04-07T07:08:57;3.50;;;3.20;;
10365;SDS011;5229;41.820;23.490;2023-04-07T07:11:26;3.75;;;3.40;;
10365;SDS011;5229;41.820;23.490;2023-04-07T07:13:53;4.30;;;3.40;;
10365;SDS011;5229;41.820;23.490;2023-04-07T07:16:19;3.13;;;2.83;;
10365;SDS011;5229;41.820;23.490;2023-04-07T07:18:48;7.93;;;4.57;;
10365;SDS011;5229;41.820;23.490;2023-04-07T07:21:15;5.68;;;3.88;;
10365;SDS011;5229;41.820;23.490;2023-04-07T07:23:42;5.13;;;3.10;;
10365;SDS011;5229;41.820;23.490;2023-04-07T07:26:09;2.90;;;2.70;;
10365;SDS011;5229;41.820;23.490;2023-04-07T07:28:37;3.15;;;2.90;;
10365;SDS011;5229;41.820;23.490;2023-04-07T07:31:07;3.17;;;2.88;;
10365;SDS011;5229;41.820;23.490;2023-04-07T07:33:36;3.00;;;2.70;;
10365;SDS011;5229;41.820;23.490;2023-04-07T07:36:04;2.63;;;2.42;;
10365;SDS011;5229;41.820;23.490;2023-04-07T07:38:31;2.53;;;2.33;;
10365;SDS011;5229;41.820;23.490;2023-04-07T07:40:58;2.55;;;2.33;;
10365;SDS011;5229;41.820;23.490;2023-04-07T07:43:25;3.20;;;2.95;;
10365;SDS011;5229;41.820;23.490;2023-04-07T07:45:53;2.70;;;2.50;;
10365;SDS011;5229;41.820;23.490;2023-04-07T07:48:20;4.85;;;4.03;;
10365;SDS011;5229;41.820;23.490;2023-04-07T07:50:47;5.20;;;4.18;;
10365;SDS011;5229;41.820;23.490;2023-04-07T07:53:14;3.30;;;3.00;;
10365;SDS011;5229;41.820;23.490;2023-04-07T07:55:41;3.10;;;2.80;;
10365;SDS011;5229;41.820;23.490;2023-04-07T07:58:08;2.80;;;2.60;;
10365;SDS011;5229;41.820;23.490;2023-04-07T08:00:35;3.05;;;2.65;;
10365;SDS011;5229;41.820;23.490;2023-04-07T08:03:03;3.35;;;2.95;;
10365;SDS011;5229;41.820;23.490;2023-04-07T08:05:30;2.78;;;2.58;;
10365;SDS011;5229;41.820;23.490;2023-04-07T08:07:56;3.17;;;2.50;;
10365;SDS011;5229;41.820;23.490;2023-04-07T08:10:24;2.85;;;2.10;;
10365;SDS011;5229;41.820;23.490;2023-04-07T08:12:51;2.63;;;2.28;;
10365;SDS011;5229;41.820;23.490;2023-04-07T08:15:17;4.60;;;2.63;;
10365;SDS011;5229;41.820;23.490;2023-04-07T08:17:44;10.40;;;3.10;;
10365;SDS011;5229;41.820;23.490;2023-04-07T08:20:13;4.68;;;2.28;;
10365;SDS011;5229;41.820;23.490;2023-04-07T08:22:40;7.25;;;2.75;;
10365;SDS011;5229;41.820;23.490;2023-04-07T08:25:08;4.07;;;2.85;;
10365;SDS011;5229;41.820;23.490;2023-04-07T08:27:35;4.38;;;2.40;;
10365;SDS011;5229;41.820;23.490;2023-04-07T08:30:02;2.40;;;2.20;;
10365;SDS011;5229;41.820;23.490;2023-04-07T08:32:34;2.50;;;2.30;;
10365;SDS011;5229;41.820;23.490;2023-04-07T08:35:02;3.20;;;2.40;;
10365;SDS011;5229;41.820;23.490;2023-04-07T08:37:30;3.88;;;3.58;;
10365;SDS011;5229;41.820;23.490;2023-04-07T08:39:58;3.50;;;3.20;;
10365;SDS011;5229;41.820;23.490;2023-04-07T08:42:26;4.20;;;3.03;;
10365;SDS011;5229;41.820;23.490;2023-04-07T08:44:55;2.92;;;2.60;;
10365;SDS011;5229;41.820;23.490;2023-04-07T08:47:24;2.92;;;2.67;;
10365;SDS011;5229;41.820;23.490;2023-04-07T08:49:52;2.70;;;2.50;;
10365;SDS011;5229;41.820;23.490;2023-04-07T08:52:22;2.38;;;2.17;;
10365;SDS011;5229;41.820;23.490;2023-04-07T08:55:00;2.47;;;2.15;;
10365;SDS011;5229;41.820;23.490;2023-04-07T08:57:31;1.95;;;1.80;;
10365;SDS011;5229;41.820;23.490;2023-04-07T08:59:58;2.70;;;1.98;;
10365;SDS011;5229;41.820;23.490;2023-04-07T09:02:30;2.28;;;1.73;;
10365;SDS011;5229;41.820;23.490;2023-04-07T09:04:57;2.35;;;1.83;;
10365;SDS011;5229;41.820;23.490;2023-04-07T09:07:25;2.20;;;2.00;;
10365;SDS011;5229;41.820;23.490;2023-04-07T09:09:51;1.27;;;1.17;;
10365;SDS011;5229;41.820;23.490;2023-04-07T09:12:20;1.20;;;1.10;;
10365;SDS011;5229;41.820;23.490;2023-04-07T09:14:46;1.63;;;1.52;;
10365;SDS011;5229;41.820;23.490;2023-04-07T09:17:13;2.13;;;1.55;;
10365;SDS011;5229;41.820;23.490;2023-04-07T09:19:40;2.90;;;1.10;;
10365;SDS011;5229;41.820;23.490;2023-04-07T09:22:07;1.75;;;1.20;;
10365;SDS011;5229;41.820;23.490;2023-04-07T09:24:36;1.50;;;1.40;;
10365;SDS011;5229;41.820;23.490;2023-04-07T09:27:10;1.33;;;1.23;;
10365;SDS011;5229;41.820;23.490;2023-04-07T09:29:39;1.45;;;1.35;;
10365;SDS011;5229;41.820;23.490;2023-04-07T09:32:07;1.77;;;1.38;;
10365;SDS011;5229;41.820;23.490;2023-04-07T09:34:35;1.17;;;1.10;;
10365;SDS011;5229;41.820;23.490;2023-04-07T09:37:06;2.35;;;1.40;;
10365;SDS011;5229;41.820;23.490;2023-04-07T09:39:33;1.58;;;1.48;;
10365;SDS011;5229;41.820;23.490;2023-04-07T09:42:14;2.03;;;1.70;;
10365;SDS011;5229;41.820;23.490;2023-04-07T09:44:42;2.67;;;1.42;;
10365;SDS011;5229;41.820;23.490;2023-04-07T09:47:09;1.85;;;1.60;;
10365;SDS011;5229;41.820;23.490;2023-04-07T09:49:47;1.60;;;1.50;;
10365;SDS011;5229;41.820;23.490;2023-04-07T09:52:14;1.60;;;1.48;;
10365;SDS011;5229;41.820;23.490;2023-04-07T09:54:42;1.88;;;1.65;;
10365;SDS011;5229;41.820;23.490;2023-04-07T09:57:10;1.60;;;1.50;;
10365;SDS011;5229;41.820;23.490;2023-04-07T09:59:39;2.17;;;1.63;;
10365;SDS011;5229;41.820;23.490;2023-04-07T10:02:10;2.15;;;1.98;;
10365;SDS011;5229;41.820;23.490;2023-04-07T10:04:37;1.63;;;1.52;;
10365;SDS011;5229;41.820;23.490;2023-04-07T10:07:04;1.85;;;1.73;;
10365;SDS011;5229;41.820;23.490;2023-04-07T10:09:31;2.60;;;1.60;;
10365;SDS011;5229;41.820;23.490;2023-04-07T10:11:58;1.90;;;1.80;;
10365;SDS011;5229;41.820;23.490;2023-04-07T10:14:25;2.20;;;2.00;;
10365;SDS011;5229;41.820;23.490;2023-04-07T10:16:53;2.22;;;1.80;;
10365;SDS011;5229;41.820;23.490;2023-04-07T10:19:21;2.40;;;1.85;;
10365;SDS011;5229;41.820;23.490;2023-04-07T10:21:50;1.70;;;1.60;;
10365;SDS011;5229;41.820;23.490;2023-04-07T10:24:23;1.88;;;1.58;;
10365;SDS011;5229;41.820;23.490;2023-04-07T10:27:06;1.48;;;1.38;;
10365;SDS011;5229;41.820;23.490;2023-04-07T10:29:37;2.08;;;1.88;;
10365;SDS011;5229;41.820;23.490;2023-04-07T10:32:07;1.70;;;1.60;;
10365;SDS011;5229;41.820;23.490;2023-04-07T10:37:25;1.70;;;1.60;;
10365;SDS011;5229;41.820;23.490;2023-04-07T10:42:53;1.60;;;1.50;;
10365;SDS011;5229;41.820;23.490;2023-04-07T10:48:20;2.25;;;2.05;;
10365;SDS011;5229;41.820;23.490;2023-04-07T10:59:32;2.95;;;2.30;;
10365;SDS011;5229;41.820;23.490;2023-04-07T11:04:59;2.55;;;1.77;;
10365;SDS011;5229;41.820;23.490;2023-04-07T11:07:44;2.92;;;2.17;;
10365;SDS011;5229;41.820;23.490;2023-04-07T11:10:16;2.10;;;1.90;;
10365;SDS011;5229;41.820;23.490;2023-04-07T11:12:44;2.03;;;1.90;;
10365;SDS011;5229;41.820;23.490;2023-04-07T11:15:24;2.28;;;2.08;;
10365;SDS011;5229;41.820;23.490;2023-04-07T11:18:11;1.83;;;1.73;;
10365;SDS011;5229;41.820;23.490;2023-04-07T11:20:40;2.47;;;2.17;;
10365;SDS011;5229;41.820;23.490;2023-04-07T11:23:10;3.57;;;2.30;;
10365;SDS011;5229;41.820;23.490;2023-04-07T11:25:39;2.77;;;1.97;;
10365;SDS011;5229;41.820;23.490;2023-04-07T11:28:09;2.23;;;1.93;;
10365;SDS011;5229;41.820;23.490;2023-04-07T11:30:37;2.97;;;1.80;;
10365;SDS011;5229;41.820;23.490;2023-04-07T11:33:04;2.10;;;1.90;;
10365;SDS011;5229;41.820;23.490;2023-04-07T11:35:34;2.10;;;1.90;;
10365;SDS011;5229;41.820;23.490;2023-04-07T11:38:01;4.07;;;2.20;;
10365;SDS011;5229;41.820;23.490;2023-04-07T11:40:33;2.77;;;2.27;;
10365;SDS011;5229;41.820;23.490;2023-04-07T11:43:01;2.83;;;2.30;;
10365;SDS011;5229;41.820;23.490;2023-04-07T11:45:28;2.03;;;1.83;;
10365;SDS011;5229;41.820;23.490;2023-04-07T11:47:55;2.47;;;2.27;;
10365;SDS011;5229;41.820;23.490;2023-04-07T11:50:37;2.93;;;2.27;;
10365;SDS011;5229;41.820;23.490;2023-04-07T11:53:06;2.23;;;1.97;;
10365;SDS011;5229;41.820;23.490;2023-04-07T11:55:34;2.83;;;2.27;;
10365;SDS011;5229;41.820;23.490;2023-04-07T11:58:04;2.67;;;2.20;;
10365;SDS011;5229;41.820;23.490;2023-04-07T12:00:34;2.13;;;1.80;;
10365;SDS011;5229;41.820;23.490;2023-04-07T12:03:10;3.10;;;2.13;;
10365;SDS011;5229;41.820;23.490;2023-04-07T12:05:44;2.70;;;2.27;;
10365;SDS011;5229;41.820;23.490;2023-04-07T12:08:11;3.10;;;2.37;;
10365;SDS011;5229;41.820;23.490;2023-04-07T12:10:40;2.63;;;2.23;;
10365;SDS011;5229;41.820;23.490;2023-04-07T12:13:07;2.10;;;1.90;;
10365;SDS011;5229;41.820;23.490;2023-04-07T12:15:35;3.60;;;1.90;;
10365;SDS011;5229;41.820;23.490;2023-04-07T12:18:02;3.87;;;2.43;;
10365;SDS011;5229;41.820;23.490;2023-04-07T12:20:28;2.83;;;2.27;;
10365;SDS011;5229;41.820;23.490;2023-04-07T12:22:55;3.50;;;1.93;;
10365;SDS011;5229;41.820;23.490;2023-04-07T12:25:24;3.20;;;2.00;;
10365;SDS011;5229;41.820;23.490;2023-04-07T12:27:52;2.90;;;2.13;;
10365;SDS011;5229;41.820;23.490;2023-04-07T12:30:20;5.80;;;2.07;;
10365;SDS011;5229;41.820;23.490;2023-04-07T12:32:46;2.63;;;2.17;;
10365;SDS011;5229;41.820;23.490;2023-04-07T12:35:13;2.30;;;2.10;;
10365;SDS011;5229;41.820;23.490;2023-04-07T12:37:40;2.50;;;2.30;;
10365;SDS011;5229;41.820;23.490;2023-04-07T12:40:07;3.20;;;2.83;;
10365;SDS011;5229;41.820;23.490;2023-04-07T12:42:36;4.20;;;2.97;;
10365;SDS011;5229;41.820;23.490;2023-04-07T12:45:05;3.30;;;3.00;;
10365;SDS011;5229;41.820;23.490;2023-04-07T12:47:32;2.90;;;2.60;;
10365;SDS011;5229;41.820;23.490;2023-04-07T12:49:59;3.23;;;2.20;;
10365;SDS011;5229;41.820;23.490;2023-04-07T12:52:26;2.63;;;2.00;;
10365;SDS011;5229;41.820;23.490;2023-04-07T12:54:53;2.13;;;1.93;;
10365;SDS011;5229;41.820;23.490;2023-04-07T12:57:21;2.53;;;2.30;;
10365;SDS011;5229;41.820;23.490;2023-04-07T12:59:47;2.40;;;2.20;;
10365;SDS011;5229;41.820;23.490;2023-04-07T13:02:16;3.20;;;2.00;;
10365;SDS011;5229;41.820;23.490;2023-04-07T13:04:43;2.30;;;2.07;;
10365;SDS011;5229;41.820;23.490;2023-04-07T13:07:11;2.53;;;1.73;;
10365;SDS011;5229;41.820;23.490;2023-04-07T13:09:37;2.17;;;1.97;;
10365;SDS011;5229;41.820;23.490;2023-04-07T13:12:05;3.70;;;2.60;;
10365;SDS011;5229;41.820;23.490;2023-04-07T13:14:32;2.50;;;2.30;;
10365;SDS011;5229;41.820;23.490;2023-04-07T13:16:58;2.37;;;2.10;;
10365;SDS011;5229;41.820;23.490;2023-04-07T13:19:26;2.60;;;2.07;;
10365;SDS011;5229;41.820;23.490;2023-04-07T13:21:55;2.37;;;1.80;;
10365;SDS011;5229;41.820;23.490;2023-04-07T13:24:21;2.60;;;2.40;;
10365;SDS011;5229;41.820;23.490;2023-04-07T13:26:49;5.03;;;2.00;;
10365;SDS011;5229;41.820;23.490;2023-04-07T13:29:15;1.80;;;1.70;;
10365;SDS011;5229;41.820;23.490;2023-04-07T13:31:44;3.90;;;2.50;;
10365;SDS011;5229;41.820;23.490;2023-04-07T13:34:11;2.87;;;2.10;;
10365;SDS011;5229;41.820;23.490;2023-04-07T13:36:40;1.90;;;1.67;;
10365;SDS011;5229;41.820;23.490;2023-04-07T13:39:07;2.00;;;1.87;;
10365;SDS011;5229;41.820;23.490;2023-04-07T13:41:34;2.73;;;2.00;;
10365;SDS011;5229;41.820;23.490;2023-04-07T13:44:01;2.30;;;2.10;;
10365;SDS011;5229;41.820;23.490;2023-04-07T13:46:27;3.53;;;2.10;;
10365;SDS011;5229;41.820;23.490;2023-04-07T13:48:54;2.27;;;1.80;;
10365;SDS011;5229;41.820;23.490;2023-04-07T13:51:21;2.13;;;1.93;;
10365;SDS011;5229;41.820;23.490;2023-04-07T13:53:49;1.97;;;1.77;;
10365;SDS011;5229;41.820;23.490;2023-04-07T13:56:16;2.37;;;1.97;;
10365;SDS011;5229;41.820;23.490;2023-04-07T13:58:43;3.50;;;2.03;;
10365;SDS011;5229;41.820;23.490;2023-04-07T14:01:10;3.63;;;2.50;;
10365;SDS011;5229;41.820;23.490;2023-04-07T14:03:36;5.17;;;2.80;;
10365;SDS011;5229;41.820;23.490;2023-04-07T14:06:03;2.47;;;2.00;;
10365;SDS011;5229;41.820;23.490;2023-04-07T14:08:30;2.37;;;1.73;;
10365;SDS011;5229;41.820;23.490;2023-04-07T14:10:58;2.13;;;1.93;;
10365;SDS011;5229;41.820;23.490;2023-04-07T14:13:25;2.07;;;1.73;;
10365;SDS011;5229;41.820;23.490;2023-04-07T14:15:51;3.23;;;1.93;;
10365;SDS011;5229;41.820;23.490;2023-04-07T14:18:18;2.50;;;2.17;;
10365;SDS011;5229;41.820;23.490;2023-04-07T14:20:45;5.13;;;2.30;;
10365;SDS011;5229;41.820;23.490;2023-04-07T14:23:12;1.60;;;1.50;;
10365;SDS011;5229;41.820;23.490;2023-04-07T14:25:39;2.03;;;1.87;;
10365;SDS011;5229;41.820;23.490;2023-04-07T14:28:07;3.07;;;2.77;;
10365;SDS011;5229;41.820;23.490;2023-04-07T14:30:34;2.40;;;2.20;;
10365;SDS011;5229;41.820;23.490;2023-04-07T14:33:02;2.97;;;2.20;;
10365;SDS011;5229;41.820;23.490;2023-04-07T14:35:29;4.70;;;2.37;;
10365;SDS011;5229;41.820;23.490;2023-04-07T14:37:56;3.30;;;2.00;;
10365;SDS011;5229;41.820;23.490;2023-04-07T14:40:23;3.30;;;1.90;;
10365;SDS011;5229;41.820;23.490;2023-04-07T14:42:50;2.73;;;2.33;;
10365;SDS011;5229;41.820;23.490;2023-04-07T14:45:18;3.20;;;2.20;;
10365;SDS011;5229;41.820;23.490;2023-04-07T14:47:44;3.37;;;2.53;;
10365;SDS011;5229;41.820;23.490;2023-04-07T14:50:11;3.67;;;2.87;;
10365;SDS011;5229;41.820;23.490;2023-04-07T14:52:38;2.47;;;2.20;;
10365;SDS011;5229;41.820;23.490;2023-04-07T14:55:05;2.63;;;2.00;;
10365;SDS011;5229;41.820;23.490;2023-04-07T14:57:33;2.63;;;1.90;;
10365;SDS011;5229;41.820;23.490;2023-04-07T14:59:59;2.50;;;1.70;;
10365;SDS011;5229;41.820;23.490;2023-04-07T15:02:27;2.47;;;2.00;;
10365;SDS011;5229;41.820;23.490;2023-04-07T15:04:56;2.47;;;2.20;;
10365;SDS011;5229;41.820;23.490;2023-04-07T15:07:23;2.23;;;2.00;;
10365;SDS011;5229;41.820;23.490;2023-04-07T15:09:50;2.50;;;2.20;;
10365;SDS011;5229;41.820;23.490;2023-04-07T15:12:18;7.67;;;2.40;;